sensor_id;sensor_type;location;lat;lon;timestamp;temperature;humidity
60027;DHT22;45891;53.006;6.512;2024-02-21T00:02:18;9.60;99.90
60027;DHT22;45891;53.006;6.512;2024-02-21T00:04:44;9.60;99.90
60027;DHT22;45891;53.006;6.512;2024-02-21T00:07:10;9.60;99.90
60027;DHT22;45891;53.006;6.512;2024-02-21T00:09:36;9.60;99.90
60027;DHT22;45891;53.006;6.512;2024-02-21T00:12:01;9.60;99.90
60027;DHT22;45891;53.006;6.512;2024-02-21T00:14:28;9.60;99.90
60027;DHT22;45891;53.006;6.512;2024-02-21T00:16:54;9.60;99.90
60027;DHT22;45891;53.006;6.512;2024-02-21T00:19:20;9.50;99.90
60027;DHT22;45891;53.006;6.512;2024-02-21T00:21:46;9.60;99.90
60027;DHT22;45891;53.006;6.512;2024-02-21T00:24:12;9.60;99.90
60027;DHT22;45891;53.006;6.512;2024-02-21T00:26:38;9.50;99.90
60027;DHT22;45891;53.006;6.512;2024-02-21T00:29:04;9.50;99.90
60027;DHT22;45891;53.006;6.512;2024-02-21T00:31:31;9.50;99.90
60027;DHT22;45891;53.006;6.512;2024-02-21T00:33:57;9.60;99.90
60027;DHT22;45891;53.006;6.512;2024-02-21T00:36:23;9.50;99.90
60027;DHT22;45891;53.006;6.512;2024-02-21T00:38:49;9.50;99.90
60027;DHT22;45891;53.006;6.512;2024-02-21T00:41:15;9.50;99.90
60027;DHT22;45891;53.006;6.512;2024-02-21T00:43:41;9.50;99.90
60027;DHT22;45891;53.006;6.512;2024-02-21T00:46:07;9.50;99.90
60027;DHT22;45891;53.006;6.512;2024-02-21T00:48:33;9.50;99.90
60027;DHT22;45891;53.006;6.512;2024-02-21T00:51:00;9.40;99.90
60027;DHT22;45891;53.006;6.512;2024-02-21T00:53:25;9.40;99.90
60027;DHT22;45891;53.006;6.512;2024-02-21T00:55:51;9.40;99.90
60027;DHT22;45891;53.006;6.512;2024-02-21T00:58:17;9.30;99.90
60027;DHT22;45891;53.006;6.512;2024-02-21T01:00:43;9.30;99.90
60027;DHT22;45891;53.006;6.512;2024-02-21T01:03:09;9.30;99.90
60027;DHT22;45891;53.006;6.512;2024-02-21T01:05:35;9.30;99.90
60027;DHT22;45891;53.006;6.512;2024-02-21T01:08:01;9.20;99.90
60027;DHT22;45891;53.006;6.512;2024-02-21T01:10:27;9.20;99.90
60027;DHT22;45891;53.006;6.512;2024-02-21T01:12:53;9.20;99.90
60027;DHT22;45891;53.006;6.512;2024-02-21T01:15:19;9.20;99.90
60027;DHT22;45891;53.006;6.512;2024-02-21T01:17:45;9.20;99.90
60027;DHT22;45891;53.006;6.512;2024-02-21T01:20:11;9.20;99.90
60027;DHT22;45891;53.006;6.512;2024-02-21T01:22:37;9.20;99.90
60027;DHT22;45891;53.006;6.512;2024-02-21T01:25:02;9.20;99.90
60027;DHT22;45891;53.006;6.512;2024-02-21T01:27:28;9.10;99.90
60027;DHT22;45891;53.006;6.512;2024-02-21T01:29:54;9.20;99.90
60027;DHT22;45891;53.006;6.512;2024-02-21T01:32:21;9.10;99.90
60027;DHT22;45891;53.006;6.512;2024-02-21T01:34:47;9.20;99.90
60027;DHT22;45891;53.006;6.512;2024-02-21T01:37:13;9.20;99.90
60027;DHT22;45891;53.006;6.512;2024-02-21T01:39:39;9.20;99.90
60027;DHT22;45891;53.006;6.512;2024-02-21T01:42:05;9.10;99.90
60027;DHT22;45891;53.006;6.512;2024-02-21T01:44:31;9.10;99.90
60027;DHT22;45891;53.006;6.512;2024-02-21T01:46:57;9.00;99.90
60027;DHT22;45891;53.006;6.512;2024-02-21T01:49:23;9.00;99.90
60027;DHT22;45891;53.006;6.512;2024-02-21T01:51:49;9.00;99.90
60027;DHT22;45891;53.006;6.512;2024-02-21T01:54:16;8.90;99.90
60027;DHT22;45891;53.006;6.512;2024-02-21T01:56:42;8.90;99.90
60027;DHT22;45891;53.006;6.512;2024-02-21T01:59:08;8.90;99.90
60027;DHT22;45891;53.006;6.512;2024-02-21T02:01:35;8.80;99.90
60027;DHT22;45891;53.006;6.512;2024-02-21T02:04:00;8.80;99.90
60027;DHT22;45891;53.006;6.512;2024-02-21T02:06:26;8.80;99.90
60027;DHT22;45891;53.006;6.512;2024-02-21T02:08:53;8.80;99.90
60027;DHT22;45891;53.006;6.512;2024-02-21T02:11:19;8.80;99.90
60027;DHT22;45891;53.006;6.512;2024-02-21T02:13:45;8.80;99.90
60027;DHT22;45891;53.006;6.512;2024-02-21T02:16:11;8.80;99.90
60027;DHT22;45891;53.006;6.512;2024-02-21T02:18:37;8.80;99.90
60027;DHT22;45891;53.006;6.512;2024-02-21T02:21:04;8.80;99.90
60027;DHT22;45891;53.006;6.512;2024-02-21T02:23:31;8.80;99.90
60027;DHT22;45891;53.006;6.512;2024-02-21T02:25:57;8.80;99.90
60027;DHT22;45891;53.006;6.512;2024-02-21T02:28:23;8.70;99.90
60027;DHT22;45891;53.006;6.512;2024-02-21T02:30:49;8.80;99.90
60027;DHT22;45891;53.006;6.512;2024-02-21T02:33:15;8.80;99.90
60027;DHT22;45891;53.006;6.512;2024-02-21T02:35:43;8.70;99.90
60027;DHT22;45891;53.006;6.512;2024-02-21T02:38:09;8.70;99.90
60027;DHT22;45891;53.006;6.512;2024-02-21T02:40:38;8.70;99.90
60027;DHT22;45891;53.006;6.512;2024-02-21T02:43:04;8.70;99.90
60027;DHT22;45891;53.006;6.512;2024-02-21T02:45:29;8.70;99.90
60027;DHT22;45891;53.006;6.512;2024-02-21T02:47:56;8.70;99.90
60027;DHT22;45891;53.006;6.512;2024-02-21T02:50:22;8.80;99.90
60027;DHT22;45891;53.006;6.512;2024-02-21T02:52:48;8.70;99.90
60027;DHT22;45891;53.006;6.512;2024-02-21T02:55:14;8.70;99.90
60027;DHT22;45891;53.006;6.512;2024-02-21T02:57:40;8.70;99.90
60027;DHT22;45891;53.006;6.512;2024-02-21T03:00:08;8.80;99.90
60027;DHT22;45891;53.006;6.512;2024-02-21T03:02:35;8.70;99.90
60027;DHT22;45891;53.006;6.512;2024-02-21T03:05:01;8.70;99.90
60027;DHT22;45891;53.006;6.512;2024-02-21T03:07:36;8.70;99.90
60027;DHT22;45891;53.006;6.512;2024-02-21T03:10:02;8.70;99.90
60027;DHT22;45891;53.006;6.512;2024-02-21T03:12:28;8.70;99.90
60027;DHT22;45891;53.006;6.512;2024-02-21T03:14:55;8.70;99.90
60027;DHT22;45891;53.006;6.512;2024-02-21T03:17:21;8.70;99.90
60027;DHT22;45891;53.006;6.512;2024-02-21T03:19:48;8.70;99.90
60027;DHT22;45891;53.006;6.512;2024-02-21T03:22:15;8.70;99.90
60027;DHT22;45891;53.006;6.512;2024-02-21T03:24:41;8.70;99.90
60027;DHT22;45891;53.006;6.512;2024-02-21T03:27:07;8.70;99.90
60027;DHT22;45891;53.006;6.512;2024-02-21T03:29:33;8.70;99.90
60027;DHT22;45891;53.006;6.512;2024-02-21T03:31:59;8.70;99.90
60027;DHT22;45891;53.006;6.512;2024-02-21T03:34:25;8.80;99.90
60027;DHT22;45891;53.006;6.512;2024-02-21T03:36:51;8.70;99.90
60027;DHT22;45891;53.006;6.512;2024-02-21T03:39:17;8.70;99.90
60027;DHT22;45891;53.006;6.512;2024-02-21T03:41:43;8.70;99.90
60027;DHT22;45891;53.006;6.512;2024-02-21T03:44:09;8.70;99.90
60027;DHT22;45891;53.006;6.512;2024-02-21T03:46:35;8.70;99.90
60027;DHT22;45891;53.006;6.512;2024-02-21T03:49:01;8.80;99.90
60027;DHT22;45891;53.006;6.512;2024-02-21T03:51:27;8.80;99.90
60027;DHT22;45891;53.006;6.512;2024-02-21T03:53:53;8.70;99.90
60027;DHT22;45891;53.006;6.512;2024-02-21T03:56:19;8.70;99.90
60027;DHT22;45891;53.006;6.512;2024-02-21T03:58:45;8.70;99.90
60027;DHT22;45891;53.006;6.512;2024-02-21T04:01:10;8.80;99.90
60027;DHT22;45891;53.006;6.512;2024-02-21T04:03:36;8.80;99.90
60027;DHT22;45891;53.006;6.512;2024-02-21T04:06:02;8.80;99.90
60027;DHT22;45891;53.006;6.512;2024-02-21T04:08:29;8.80;99.90
60027;DHT22;45891;53.006;6.512;2024-02-21T04:10:55;8.80;99.90
60027;DHT22;45891;53.006;6.512;2024-02-21T04:13:20;8.80;99.90
60027;DHT22;45891;53.006;6.512;2024-02-21T04:15:48;8.80;99.90
60027;DHT22;45891;53.006;6.512;2024-02-21T04:18:14;8.80;99.90
60027;DHT22;45891;53.006;6.512;2024-02-21T04:20:40;8.80;99.90
60027;DHT22;45891;53.006;6.512;2024-02-21T04:23:06;8.80;99.90
60027;DHT22;45891;53.006;6.512;2024-02-21T04:25:32;8.80;99.90
60027;DHT22;45891;53.006;6.512;2024-02-21T04:27:58;8.80;99.90
60027;DHT22;45891;53.006;6.512;2024-02-21T04:30:24;8.80;99.90
60027;DHT22;45891;53.006;6.512;2024-02-21T04:32:50;8.80;99.90
60027;DHT22;45891;53.006;6.512;2024-02-21T04:35:16;8.80;99.90
60027;DHT22;45891;53.006;6.512;2024-02-21T04:37:42;8.80;99.90
60027;DHT22;45891;53.006;6.512;2024-02-21T04:40:08;8.80;99.90
60027;DHT22;45891;53.006;6.512;2024-02-21T04:42:35;8.80;99.90
60027;DHT22;45891;53.006;6.512;2024-02-21T04:45:00;8.80;99.90
60027;DHT22;45891;53.006;6.512;2024-02-21T04:47:27;8.80;99.90
60027;DHT22;45891;53.006;6.512;2024-02-21T04:49:52;8.80;99.90
60027;DHT22;45891;53.006;6.512;2024-02-21T04:52:18;8.70;99.90
60027;DHT22;45891;53.006;6.512;2024-02-21T04:54:44;8.80;99.90
60027;DHT22;45891;53.006;6.512;2024-02-21T04:57:10;8.80;99.90
60027;DHT22;45891;53.006;6.512;2024-02-21T04:59:36;8.80;99.90
60027;DHT22;45891;53.006;6.512;2024-02-21T05:02:02;8.70;99.90
60027;DHT22;45891;53.006;6.512;2024-02-21T05:04:28;8.80;99.90
60027;DHT22;45891;53.006;6.512;2024-02-21T05:06:54;8.80;99.90
60027;DHT22;45891;53.006;6.512;2024-02-21T05:09:20;8.70;99.90
60027;DHT22;45891;53.006;6.512;2024-02-21T05:11:46;8.80;99.90
60027;DHT22;45891;53.006;6.512;2024-02-21T05:14:13;8.70;99.90
60027;DHT22;45891;53.006;6.512;2024-02-21T05:16:39;8.70;99.90
60027;DHT22;45891;53.006;6.512;2024-02-21T05:19:05;8.70;99.90
60027;DHT22;45891;53.006;6.512;2024-02-21T05:21:31;8.80;99.90
60027;DHT22;45891;53.006;6.512;2024-02-21T05:23:57;8.70;99.90
60027;DHT22;45891;53.006;6.512;2024-02-21T05:26:26;8.70;99.90
60027;DHT22;45891;53.006;6.512;2024-02-21T05:28:53;8.80;99.90
60027;DHT22;45891;53.006;6.512;2024-02-21T05:31:19;8.80;99.90
60027;DHT22;45891;53.006;6.512;2024-02-21T05:33:45;8.80;99.90
60027;DHT22;45891;53.006;6.512;2024-02-21T05:36:11;8.80;99.90
60027;DHT22;45891;53.006;6.512;2024-02-21T05:38:37;8.80;99.90
60027;DHT22;45891;53.006;6.512;2024-02-21T05:41:03;8.70;99.90
60027;DHT22;45891;53.006;6.512;2024-02-21T05:43:29;8.80;99.90
60027;DHT22;45891;53.006;6.512;2024-02-21T05:45:55;8.80;99.90
60027;DHT22;45891;53.006;6.512;2024-02-21T05:48:21;8.80;99.90
60027;DHT22;45891;53.006;6.512;2024-02-21T05:50:47;8.80;99.90
60027;DHT22;45891;53.006;6.512;2024-02-21T05:53:13;8.80;99.90
60027;DHT22;45891;53.006;6.512;2024-02-21T05:55:40;8.80;99.90
60027;DHT22;45891;53.006;6.512;2024-02-21T05:58:06;8.70;99.90
60027;DHT22;45891;53.006;6.512;2024-02-21T06:00:32;8.70;99.90
60027;DHT22;45891;53.006;6.512;2024-02-21T06:02:58;8.70;99.90
60027;DHT22;45891;53.006;6.512;2024-02-21T06:05:24;8.70;99.90
60027;DHT22;45891;53.006;6.512;2024-02-21T06:07:50;8.70;99.90
60027;DHT22;45891;53.006;6.512;2024-02-21T06:10:16;8.70;99.90
60027;DHT22;45891;53.006;6.512;2024-02-21T06:12:42;8.70;99.90
60027;DHT22;45891;53.006;6.512;2024-02-21T06:15:08;8.70;99.90
60027;DHT22;45891;53.006;6.512;2024-02-21T06:17:34;8.70;99.90
60027;DHT22;45891;53.006;6.512;2024-02-21T06:20:00;8.70;99.90
60027;DHT22;45891;53.006;6.512;2024-02-21T06:22:26;8.80;99.90
60027;DHT22;45891;53.006;6.512;2024-02-21T06:24:52;8.70;99.90
60027;DHT22;45891;53.006;6.512;2024-02-21T06:27:19;8.70;99.90
60027;DHT22;45891;53.006;6.512;2024-02-21T06:29:45;8.70;99.90
60027;DHT22;45891;53.006;6.512;2024-02-21T06:32:11;8.80;99.90
60027;DHT22;45891;53.006;6.512;2024-02-21T06:34:37;8.70;99.90
60027;DHT22;45891;53.006;6.512;2024-02-21T06:37:03;8.80;99.90
60027;DHT22;45891;53.006;6.512;2024-02-21T06:39:29;8.80;99.90
60027;DHT22;45891;53.006;6.512;2024-02-21T06:41:55;8.80;99.90
60027;DHT22;45891;53.006;6.512;2024-02-21T06:44:21;8.80;99.90
60027;DHT22;45891;53.006;6.512;2024-02-21T06:46:47;8.70;99.90
60027;DHT22;45891;53.006;6.512;2024-02-21T06:49:13;8.80;99.90
60027;DHT22;45891;53.006;6.512;2024-02-21T06:51:42;8.80;99.90
60027;DHT22;45891;53.006;6.512;2024-02-21T06:54:08;8.80;99.90
60027;DHT22;45891;53.006;6.512;2024-02-21T06:56:35;8.80;99.90
60027;DHT22;45891;53.006;6.512;2024-02-21T06:59:02;8.80;99.90
60027;DHT22;45891;53.006;6.512;2024-02-21T07:01:29;8.80;99.90
60027;DHT22;45891;53.006;6.512;2024-02-21T07:03:55;8.80;99.90
60027;DHT22;45891;53.006;6.512;2024-02-21T07:06:22;8.80;99.90
60027;DHT22;45891;53.006;6.512;2024-02-21T07:08:48;8.70;99.90
60027;DHT22;45891;53.006;6.512;2024-02-21T07:11:14;8.70;99.90
60027;DHT22;45891;53.006;6.512;2024-02-21T07:13:40;8.80;99.90
60027;DHT22;45891;53.006;6.512;2024-02-21T07:16:06;8.80;99.90
60027;DHT22;45891;53.006;6.512;2024-02-21T07:18:32;8.80;99.90
60027;DHT22;45891;53.006;6.512;2024-02-21T07:20:58;8.80;99.90
60027;DHT22;45891;53.006;6.512;2024-02-21T07:23:24;8.80;99.90
60027;DHT22;45891;53.006;6.512;2024-02-21T07:25:50;8.80;99.90
60027;DHT22;45891;53.006;6.512;2024-02-21T07:28:16;8.80;99.90
60027;DHT22;45891;53.006;6.512;2024-02-21T07:30:43;8.70;99.90
60027;DHT22;45891;53.006;6.512;2024-02-21T07:33:09;8.80;99.90
60027;DHT22;45891;53.006;6.512;2024-02-21T07:35:35;8.80;99.90
60027;DHT22;45891;53.006;6.512;2024-02-21T07:38:06;8.80;99.90
60027;DHT22;45891;53.006;6.512;2024-02-21T07:40:32;8.80;99.90
60027;DHT22;45891;53.006;6.512;2024-02-21T07:42:58;8.80;99.90
60027;DHT22;45891;53.006;6.512;2024-02-21T07:45:24;8.80;99.90
60027;DHT22;45891;53.006;6.512;2024-02-21T07:47:50;8.80;99.90
60027;DHT22;45891;53.006;6.512;2024-02-21T07:50:16;8.80;99.90
60027;DHT22;45891;53.006;6.512;2024-02-21T07:52:43;8.80;99.90
60027;DHT22;45891;53.006;6.512;2024-02-21T07:55:09;8.80;99.90
60027;DHT22;45891;53.006;6.512;2024-02-21T07:57:36;8.80;99.90
60027;DHT22;45891;53.006;6.512;2024-02-21T08:00:02;8.80;99.90
60027;DHT22;45891;53.006;6.512;2024-02-21T08:02:30;8.80;99.90
60027;DHT22;45891;53.006;6.512;2024-02-21T08:04:56;8.80;99.90
60027;DHT22;45891;53.006;6.512;2024-02-21T08:07:21;8.80;99.90
60027;DHT22;45891;53.006;6.512;2024-02-21T08:09:47;8.90;99.90
60027;DHT22;45891;53.006;6.512;2024-02-21T08:12:13;8.80;99.90
60027;DHT22;45891;53.006;6.512;2024-02-21T08:14:39;8.80;99.90
60027;DHT22;45891;53.006;6.512;2024-02-21T08:17:05;8.80;99.90
60027;DHT22;45891;53.006;6.512;2024-02-21T08:19:31;8.80;99.90
60027;DHT22;45891;53.006;6.512;2024-02-21T08:21:57;8.80;99.90
60027;DHT22;45891;53.006;6.512;2024-02-21T08:24:23;8.80;99.90
60027;DHT22;45891;53.006;6.512;2024-02-21T08:26:49;8.80;99.90
60027;DHT22;45891;53.006;6.512;2024-02-21T08:29:15;8.80;99.90
60027;DHT22;45891;53.006;6.512;2024-02-21T08:31:41;8.80;99.90
60027;DHT22;45891;53.006;6.512;2024-02-21T08:34:06;8.80;99.90
60027;DHT22;45891;53.006;6.512;2024-02-21T08:36:33;8.80;99.90
60027;DHT22;45891;53.006;6.512;2024-02-21T08:38:59;8.90;99.90
60027;DHT22;45891;53.006;6.512;2024-02-21T08:41:25;8.90;99.90
60027;DHT22;45891;53.006;6.512;2024-02-21T08:43:51;8.90;99.90
60027;DHT22;45891;53.006;6.512;2024-02-21T08:46:18;8.90;99.90
60027;DHT22;45891;53.006;6.512;2024-02-21T08:48:44;8.90;99.90
60027;DHT22;45891;53.006;6.512;2024-02-21T08:51:15;8.90;99.90
60027;DHT22;45891;53.006;6.512;2024-02-21T08:53:41;8.90;99.90
60027;DHT22;45891;53.006;6.512;2024-02-21T08:56:07;8.90;99.90
60027;DHT22;45891;53.006;6.512;2024-02-21T08:58:34;8.90;99.90
60027;DHT22;45891;53.006;6.512;2024-02-21T09:01:01;8.90;99.90
60027;DHT22;45891;53.006;6.512;2024-02-21T09:03:27;8.90;99.90
60027;DHT22;45891;53.006;6.512;2024-02-21T09:05:53;9.00;99.90
60027;DHT22;45891;53.006;6.512;2024-02-21T09:08:19;9.00;99.90
60027;DHT22;45891;53.006;6.512;2024-02-21T09:10:45;8.90;99.90
60027;DHT22;45891;53.006;6.512;2024-02-21T09:13:10;8.90;99.90
60027;DHT22;45891;53.006;6.512;2024-02-21T09:15:36;8.90;99.90
60027;DHT22;45891;53.006;6.512;2024-02-21T09:18:02;8.90;99.90
60027;DHT22;45891;53.006;6.512;2024-02-21T09:20:28;9.00;99.90
60027;DHT22;45891;53.006;6.512;2024-02-21T09:22:55;8.90;99.90
60027;DHT22;45891;53.006;6.512;2024-02-21T09:25:20;8.90;99.90
60027;DHT22;45891;53.006;6.512;2024-02-21T09:27:46;9.00;99.90
60027;DHT22;45891;53.006;6.512;2024-02-21T09:30:12;9.00;99.90
60027;DHT22;45891;53.006;6.512;2024-02-21T09:32:38;9.00;99.90
60027;DHT22;45891;53.006;6.512;2024-02-21T09:35:04;9.00;99.90
60027;DHT22;45891;53.006;6.512;2024-02-21T09:37:33;9.00;99.90
60027;DHT22;45891;53.006;6.512;2024-02-21T09:39:59;9.00;99.90
60027;DHT22;45891;53.006;6.512;2024-02-21T09:42:29;9.00;99.90
60027;DHT22;45891;53.006;6.512;2024-02-21T09:44:57;9.00;99.90
60027;DHT22;45891;53.006;6.512;2024-02-21T09:47:33;9.00;99.90
60027;DHT22;45891;53.006;6.512;2024-02-21T09:50:02;9.00;99.90
60027;DHT22;45891;53.006;6.512;2024-02-21T09:52:30;9.00;99.90
60027;DHT22;45891;53.006;6.512;2024-02-21T09:54:57;9.00;99.90
60027;DHT22;45891;53.006;6.512;2024-02-21T09:57:24;9.00;99.90
60027;DHT22;45891;53.006;6.512;2024-02-21T09:59:51;9.10;99.90
60027;DHT22;45891;53.006;6.512;2024-02-21T10:02:18;9.10;99.90
60027;DHT22;45891;53.006;6.512;2024-02-21T10:04:44;9.10;99.90
60027;DHT22;45891;53.006;6.512;2024-02-21T10:07:10;9.10;99.90
60027;DHT22;45891;53.006;6.512;2024-02-21T10:09:37;9.10;99.90
60027;DHT22;45891;53.006;6.512;2024-02-21T10:12:09;9.20;99.90
60027;DHT22;45891;53.006;6.512;2024-02-21T10:14:36;9.20;99.90
60027;DHT22;45891;53.006;6.512;2024-02-21T10:17:02;9.30;99.90
60027;DHT22;45891;53.006;6.512;2024-02-21T10:19:29;9.40;99.90
60027;DHT22;45891;53.006;6.512;2024-02-21T10:22:02;9.40;99.90
60027;DHT22;45891;53.006;6.512;2024-02-21T10:24:29;9.40;99.90
60027;DHT22;45891;53.006;6.512;2024-02-21T10:27:05;9.40;99.90
60027;DHT22;45891;53.006;6.512;2024-02-21T10:29:34;9.40;99.90
60027;DHT22;45891;53.006;6.512;2024-02-21T10:34:33;9.50;99.90
60027;DHT22;45891;53.006;6.512;2024-02-21T10:36:59;9.60;99.90
60027;DHT22;45891;53.006;6.512;2024-02-21T10:39:25;9.50;99.90
60027;DHT22;45891;53.006;6.512;2024-02-21T10:41:51;9.60;99.90
60027;DHT22;45891;53.006;6.512;2024-02-21T10:44:17;9.60;99.90
60027;DHT22;45891;53.006;6.512;2024-02-21T10:46:43;9.60;99.90
60027;DHT22;45891;53.006;6.512;2024-02-21T10:49:10;9.70;99.90
60027;DHT22;45891;53.006;6.512;2024-02-21T10:51:40;9.70;99.90
60027;DHT22;45891;53.006;6.512;2024-02-21T10:56:38;9.90;99.90
60027;DHT22;45891;53.006;6.512;2024-02-21T10:59:04;10.00;99.90
60027;DHT22;45891;53.006;6.512;2024-02-21T11:01:30;10.00;99.90
60027;DHT22;45891;53.006;6.512;2024-02-21T11:04:01;9.90;99.90
60027;DHT22;45891;53.006;6.512;2024-02-21T11:06:28;10.00;99.90
60027;DHT22;45891;53.006;6.512;2024-02-21T11:09:01;10.00;99.90
60027;DHT22;45891;53.006;6.512;2024-02-21T11:11:28;10.00;99.90
60027;DHT22;45891;53.006;6.512;2024-02-21T11:14:07;10.00;99.90
60027;DHT22;45891;53.006;6.512;2024-02-21T11:16:40;10.00;99.90
60027;DHT22;45891;53.006;6.512;2024-02-21T11:19:06;10.10;99.90
60027;DHT22;45891;53.006;6.512;2024-02-21T11:21:33;10.10;99.90
60027;DHT22;45891;53.006;6.512;2024-02-21T11:24:00;10.00;99.90
60027;DHT22;45891;53.006;6.512;2024-02-21T11:26:28;10.00;99.90
60027;DHT22;45891;53.006;6.512;2024-02-21T11:29:00;9.90;99.90
60027;DHT22;45891;53.006;6.512;2024-02-21T11:31:26;9.90;99.90
60027;DHT22;45891;53.006;6.512;2024-02-21T11:33:55;9.90;99.90
60027;DHT22;45891;53.006;6.512;2024-02-21T11:36:26;9.80;99.90
60027;DHT22;45891;53.006;6.512;2024-02-21T11:38:52;9.80;99.90
60027;DHT22;45891;53.006;6.512;2024-02-21T11:41:21;9.80;99.90
60027;DHT22;45891;53.006;6.512;2024-02-21T11:43:50;9.80;99.90
60027;DHT22;45891;53.006;6.512;2024-02-21T11:46:17;9.80;99.90
60027;DHT22;45891;53.006;6.512;2024-02-21T11:48:43;9.80;99.90
60027;DHT22;45891;53.006;6.512;2024-02-21T11:51:19;9.70;99.90
60027;DHT22;45891;53.006;6.512;2024-02-21T11:53:46;9.70;99.90
60027;DHT22;45891;53.006;6.512;2024-02-21T11:56:13;9.70;99.90
60027;DHT22;45891;53.006;6.512;2024-02-21T11:58:39;9.80;99.90
60027;DHT22;45891;53.006;6.512;2024-02-21T12:01:05;9.80;99.90
60027;DHT22;45891;53.006;6.512;2024-02-21T12:03:32;9.80;99.90
60027;DHT22;45891;53.006;6.512;2024-02-21T12:06:01;9.80;99.90
60027;DHT22;45891;53.006;6.512;2024-02-21T12:08:41;9.80;99.90
60027;DHT22;45891;53.006;6.512;2024-02-21T12:14:02;9.80;99.90
60027;DHT22;45891;53.006;6.512;2024-02-21T12:16:30;9.80;99.90
60027;DHT22;45891;53.006;6.512;2024-02-21T12:18:57;9.80;99.90
60027;DHT22;45891;53.006;6.512;2024-02-21T12:21:23;9.90;99.90
60027;DHT22;45891;53.006;6.512;2024-02-21T12:23:49;9.80;99.90
60027;DHT22;45891;53.006;6.512;2024-02-21T12:26:15;9.90;99.90
60027;DHT22;45891;53.006;6.512;2024-02-21T12:28:41;10.00;99.90
60027;DHT22;45891;53.006;6.512;2024-02-21T12:31:07;10.00;99.90
60027;DHT22;45891;53.006;6.512;2024-02-21T12:33:33;10.10;99.90
60027;DHT22;45891;53.006;6.512;2024-02-21T12:35:59;10.10;99.90
60027;DHT22;45891;53.006;6.512;2024-02-21T12:38:25;10.10;99.90
60027;DHT22;45891;53.006;6.512;2024-02-21T12:40:51;10.10;99.90
60027;DHT22;45891;53.006;6.512;2024-02-21T12:43:17;10.00;99.90
60027;DHT22;45891;53.006;6.512;2024-02-21T12:45:44;10.00;99.90
60027;DHT22;45891;53.006;6.512;2024-02-21T12:48:09;10.00;99.90
60027;DHT22;45891;53.006;6.512;2024-02-21T12:50:35;9.90;99.90
60027;DHT22;45891;53.006;6.512;2024-02-21T12:53:01;9.90;99.90
60027;DHT22;45891;53.006;6.512;2024-02-21T12:55:28;10.00;99.90
60027;DHT22;45891;53.006;6.512;2024-02-21T12:57:54;9.90;99.90
60027;DHT22;45891;53.006;6.512;2024-02-21T13:00:19;9.90;99.90
60027;DHT22;45891;53.006;6.512;2024-02-21T13:02:46;9.90;99.90
60027;DHT22;45891;53.006;6.512;2024-02-21T13:05:12;9.90;99.90
60027;DHT22;45891;53.006;6.512;2024-02-21T13:07:38;10.00;99.90
60027;DHT22;45891;53.006;6.512;2024-02-21T13:10:04;10.00;99.90
60027;DHT22;45891;53.006;6.512;2024-02-21T13:12:31;10.00;99.90
60027;DHT22;45891;53.006;6.512;2024-02-21T13:14:57;10.10;99.90
60027;DHT22;45891;53.006;6.512;2024-02-21T13:17:22;10.10;99.90
60027;DHT22;45891;53.006;6.512;2024-02-21T13:19:48;10.00;99.90
60027;DHT22;45891;53.006;6.512;2024-02-21T13:22:14;10.10;99.90
60027;DHT22;45891;53.006;6.512;2024-02-21T13:24:40;10.10;99.90
60027;DHT22;45891;53.006;6.512;2024-02-21T13:27:06;10.20;99.90
60027;DHT22;45891;53.006;6.512;2024-02-21T13:29:32;10.20;99.90
60027;DHT22;45891;53.006;6.512;2024-02-21T13:31:58;10.20;99.90
60027;DHT22;45891;53.006;6.512;2024-02-21T13:34:24;10.20;99.90
60027;DHT22;45891;53.006;6.512;2024-02-21T13:36:50;10.20;99.90
60027;DHT22;45891;53.006;6.512;2024-02-21T13:39:17;10.30;99.90
60027;DHT22;45891;53.006;6.512;2024-02-21T13:41:44;10.30;99.90
60027;DHT22;45891;53.006;6.512;2024-02-21T13:44:10;10.40;99.90
60027;DHT22;45891;53.006;6.512;2024-02-21T13:46:38;10.40;99.90
60027;DHT22;45891;53.006;6.512;2024-02-21T13:49:05;10.40;99.90
60027;DHT22;45891;53.006;6.512;2024-02-21T13:51:35;10.30;99.90
60027;DHT22;45891;53.006;6.512;2024-02-21T13:54:04;10.30;99.90
60027;DHT22;45891;53.006;6.512;2024-02-21T13:56:30;10.30;99.90
60027;DHT22;45891;53.006;6.512;2024-02-21T13:58:57;10.30;99.90
60027;DHT22;45891;53.006;6.512;2024-02-21T14:01:24;10.20;99.90
60027;DHT22;45891;53.006;6.512;2024-02-21T14:03:49;10.00;99.90
60027;DHT22;45891;53.006;6.512;2024-02-21T14:06:15;10.00;99.90
60027;DHT22;45891;53.006;6.512;2024-02-21T14:08:42;10.00;99.90
60027;DHT22;45891;53.006;6.512;2024-02-21T14:11:08;9.90;99.90
60027;DHT22;45891;53.006;6.512;2024-02-21T14:13:34;9.90;99.90
60027;DHT22;45891;53.006;6.512;2024-02-21T14:16:00;9.90;99.90
60027;DHT22;45891;53.006;6.512;2024-02-21T14:18:26;9.90;99.90
60027;DHT22;45891;53.006;6.512;2024-02-21T14:20:53;9.90;99.90
60027;DHT22;45891;53.006;6.512;2024-02-21T14:23:19;9.90;99.90
60027;DHT22;45891;53.006;6.512;2024-02-21T14:25:44;9.80;99.90
60027;DHT22;45891;53.006;6.512;2024-02-21T14:28:10;9.80;99.90
60027;DHT22;45891;53.006;6.512;2024-02-21T14:30:36;9.80;99.90
60027;DHT22;45891;53.006;6.512;2024-02-21T14:33:02;9.80;99.90
60027;DHT22;45891;53.006;6.512;2024-02-21T14:35:28;9.70;99.90
60027;DHT22;45891;53.006;6.512;2024-02-21T14:37:54;9.80;99.90
60027;DHT22;45891;53.006;6.512;2024-02-21T14:40:22;9.70;99.90
60027;DHT22;45891;53.006;6.512;2024-02-21T14:42:48;9.70;99.90
60027;DHT22;45891;53.006;6.512;2024-02-21T14:45:14;9.70;99.90
60027;DHT22;45891;53.006;6.512;2024-02-21T14:47:40;9.60;99.90
60027;DHT22;45891;53.006;6.512;2024-02-21T14:50:06;9.60;99.90
60027;DHT22;45891;53.006;6.512;2024-02-21T14:52:33;9.60;99.90
60027;DHT22;45891;53.006;6.512;2024-02-21T14:55:00;9.60;99.90
60027;DHT22;45891;53.006;6.512;2024-02-21T14:57:28;9.60;99.90
60027;DHT22;45891;53.006;6.512;2024-02-21T14:59:54;9.70;99.90
60027;DHT22;45891;53.006;6.512;2024-02-21T15:02:22;9.60;99.90
60027;DHT22;45891;53.006;6.512;2024-02-21T15:04:48;9.60;99.90
60027;DHT22;45891;53.006;6.512;2024-02-21T15:07:14;9.60;99.90
60027;DHT22;45891;53.006;6.512;2024-02-21T15:09:40;9.60;99.90
60027;DHT22;45891;53.006;6.512;2024-02-21T15:12:06;9.60;99.90
60027;DHT22;45891;53.006;6.512;2024-02-21T15:14:32;9.60;99.90
60027;DHT22;45891;53.006;6.512;2024-02-21T15:16:58;9.60;99.90
60027;DHT22;45891;53.006;6.512;2024-02-21T15:19:24;9.60;99.90
60027;DHT22;45891;53.006;6.512;2024-02-21T15:21:50;9.60;99.90
60027;DHT22;45891;53.006;6.512;2024-02-21T15:24:16;9.60;99.90
60027;DHT22;45891;53.006;6.512;2024-02-21T15:26:42;9.60;99.90
60027;DHT22;45891;53.006;6.512;2024-02-21T15:29:08;9.60;99.90
60027;DHT22;45891;53.006;6.512;2024-02-21T15:31:34;9.60;99.90
60027;DHT22;45891;53.006;6.512;2024-02-21T15:34:00;9.60;99.90
60027;DHT22;45891;53.006;6.512;2024-02-21T15:36:26;9.60;99.90
60027;DHT22;45891;53.006;6.512;2024-02-21T15:38:54;9.60;99.90
60027;DHT22;45891;53.006;6.512;2024-02-21T15:41:20;9.60;99.90
60027;DHT22;45891;53.006;6.512;2024-02-21T15:43:47;9.60;99.90
60027;DHT22;45891;53.006;6.512;2024-02-21T15:46:13;9.60;99.90
60027;DHT22;45891;53.006;6.512;2024-02-21T15:48:39;9.60;99.90